createdAt,value
2019-02-04T00:01:01.100Z,31.73
2019-02-04T00:03:30.308Z,30.70
2019-02-04T00:05:59.130Z,23.90
2019-02-04T00:08:29.397Z,26.43
2019-02-04T00:11:06.164Z,18.87
2019-02-04T00:13:35.206Z,23.13
2019-02-04T00:16:04.210Z,20.23
2019-02-04T00:18:33.503Z,19.37
2019-02-04T00:21:02.930Z,20.73
2019-02-04T00:23:32.054Z,15.27
2019-02-04T00:26:02.263Z,13.43
2019-02-04T00:28:31.200Z,16.60
2019-02-04T00:31:00.154Z,13.07
2019-02-04T00:33:29.373Z,14.57
2019-02-04T00:35:59.354Z,15.20
2019-02-04T00:38:28.012Z,13.97
2019-02-04T00:40:56.536Z,14.37
2019-02-04T00:43:25.315Z,15.63
2019-02-04T00:45:54.214Z,13.40
2019-02-04T00:48:27.511Z,15.57
2019-02-04T00:50:56.188Z,14.00
2019-02-04T00:53:25.041Z,13.37
2019-02-04T00:55:54.018Z,14.23
2019-02-04T00:58:22.485Z,17.77
2019-02-04T01:00:51.216Z,14.57
2019-02-04T01:03:20.413Z,13.80
2019-02-04T01:05:50.361Z,14.63
2019-02-04T01:08:19.037Z,13.63
2019-02-04T01:10:47.653Z,17.47
2019-02-04T01:13:16.386Z,16.40
2019-02-04T01:15:45.131Z,16.67
2019-02-04T01:18:13.826Z,12.67
2019-02-04T01:20:42.436Z,12.80
2019-02-04T01:23:12.837Z,10.60
2019-02-04T01:25:41.217Z,15.77
2019-02-04T01:28:09.938Z,14.47
2019-02-04T01:30:38.917Z,16.47
2019-02-04T01:33:07.365Z,12.63
2019-02-04T01:35:35.833Z,15.83
2019-02-04T01:38:04.541Z,11.57
2019-02-04T01:40:33.516Z,10.87
2019-02-04T01:43:02.394Z,13.03
2019-02-04T01:45:33.758Z,12.53
2019-02-04T01:48:02.981Z,12.00
2019-02-04T01:50:31.659Z,13.37
2019-02-04T01:53:00.219Z,11.40
2019-02-04T01:55:28.922Z,10.17
2019-02-04T01:57:57.911Z,11.10
2019-02-04T02:00:31.946Z,13.47
2019-02-04T02:03:00.940Z,19.07
2019-02-04T02:05:29.916Z,11.93
2019-02-04T02:07:58.474Z,13.17
2019-02-04T02:10:27.802Z,18.73
2019-02-04T02:12:57.231Z,13.80
2019-02-04T02:15:27.296Z,13.83
2019-02-04T02:17:56.150Z,15.83
2019-02-04T02:20:27.489Z,13.47
2019-02-04T02:22:56.412Z,15.67
2019-02-04T02:25:25.469Z,13.13
2019-02-04T02:27:54.459Z,16.37
2019-02-04T02:30:32.397Z,16.33
2019-02-04T02:33:01.086Z,18.03
2019-02-04T02:35:29.804Z,13.17
2019-02-04T02:37:58.789Z,14.73
2019-02-04T02:40:32.399Z,14.47
2019-02-04T02:43:03.628Z,13.97
2019-02-04T02:45:32.552Z,13.40
2019-02-04T02:48:01.413Z,14.50
2019-02-04T02:50:30.129Z,15.17
2019-02-04T02:52:59.011Z,18.40
2019-02-04T02:55:27.868Z,18.57
2019-02-04T02:57:56.988Z,17.80
2019-02-04T03:00:27.830Z,17.97
2019-02-04T03:02:56.259Z,21.40
2019-02-04T03:05:24.799Z,24.77
2019-02-04T03:07:53.235Z,25.13
2019-02-04T03:10:24.715Z,19.07
2019-02-04T03:12:53.264Z,21.03
2019-02-04T03:15:22.101Z,18.20
2019-02-04T03:17:52.622Z,23.43
2019-02-04T03:20:21.527Z,18.20
2019-02-04T03:22:50.217Z,16.40
2019-02-04T03:25:18.665Z,19.27
2019-02-04T03:27:47.071Z,19.30
2019-02-04T03:30:27.603Z,18.27
2019-02-04T03:32:56.221Z,20.83
2019-02-04T03:35:24.650Z,21.23
2019-02-04T03:37:53.293Z,17.90
2019-02-04T03:40:24.696Z,19.60
2019-02-04T03:42:53.363Z,22.57
2019-02-04T03:45:21.844Z,27.83
2019-02-04T03:48:03.764Z,19.07
2019-02-04T03:50:20.673Z,22.07
2019-02-04T03:52:49.699Z,24.30
2019-02-04T03:55:18.747Z,27.43
2019-02-04T03:57:47.304Z,23.53
2019-02-04T04:00:24.840Z,29.50
2019-02-04T04:02:53.474Z,29.67
2019-02-04T04:05:21.970Z,24.77
2019-02-04T04:07:53.304Z,21.73
2019-02-04T04:10:20.740Z,21.47
2019-02-04T04:12:49.206Z,23.20
2019-02-04T04:15:17.916Z,20.40
2019-02-04T04:17:48.373Z,29.47
2019-02-04T04:20:19.196Z,21.97
2019-02-04T04:22:47.626Z,26.23
2019-02-04T04:25:17.345Z,23.37
2019-02-04T04:27:45.910Z,25.17
2019-02-04T04:30:17.095Z,32.83
2019-02-04T04:32:45.567Z,25.13
2019-02-04T04:35:14.961Z,26.37
2019-02-04T04:37:43.588Z,26.43
2019-02-04T04:40:13.686Z,25.63
2019-02-04T04:42:42.148Z,27.97
2019-02-04T04:45:13.721Z,26.33
2019-02-04T04:47:42.257Z,19.30
2019-02-04T04:50:11.095Z,17.93
2019-02-04T04:52:39.567Z,20.53
2019-02-04T04:55:25.953Z,16.50
2019-02-04T04:57:54.882Z,22.43
2019-02-04T05:00:26.254Z,20.97
2019-02-04T05:02:54.729Z,23.20
2019-02-04T05:05:23.249Z,21.53
2019-02-04T05:07:51.712Z,24.80
2019-02-04T05:10:21.439Z,23.83
2019-02-04T05:12:49.848Z,29.97
2019-02-04T05:15:23.996Z,31.40
2019-02-04T05:17:52.886Z,27.87
2019-02-04T05:20:21.968Z,28.47
2019-02-04T05:22:50.406Z,30.37
2019-02-04T05:25:18.992Z,25.00
2019-02-04T05:27:47.478Z,23.40
2019-02-04T05:30:21.341Z,22.33
2019-02-04T05:32:49.822Z,26.13
2019-02-04T05:35:18.545Z,27.20
2019-02-04T05:37:47.070Z,22.47
2019-02-04T05:40:17.112Z,22.30
2019-02-04T05:42:46.331Z,22.53
2019-02-04T05:45:19.328Z,27.13
2019-02-04T05:47:47.760Z,25.93
2019-02-04T05:50:20.204Z,25.57
2019-02-04T05:52:49.216Z,24.33
2019-02-04T05:55:20.231Z,25.33
2019-02-04T05:57:48.723Z,21.73
2019-02-04T06:00:22.009Z,23.97
2019-02-04T06:02:51.316Z,20.43
2019-02-04T06:05:20.045Z,20.67
2019-02-04T06:07:48.418Z,21.20
2019-02-04T06:10:17.755Z,20.50
2019-02-04T06:12:46.202Z,25.07
2019-02-04T06:15:16.153Z,28.33
2019-02-04T06:17:44.603Z,24.73
2019-02-04T06:20:25.438Z,17.93
2019-02-04T06:22:54.149Z,20.43
2019-02-04T06:25:22.755Z,20.43
2019-02-04T06:27:51.394Z,22.27
2019-02-04T06:30:21.947Z,23.90
2019-02-04T06:32:50.395Z,23.90
2019-02-04T06:35:19.327Z,24.27
2019-02-04T06:37:48.226Z,24.40
2019-02-04T06:40:19.700Z,24.00
2019-02-04T06:42:48.145Z,26.57
2019-02-04T06:45:17.989Z,26.27
2019-02-04T06:47:46.599Z,25.17
2019-02-04T06:50:17.505Z,26.10
2019-02-04T06:52:45.997Z,26.23
2019-02-04T06:55:28.873Z,24.00
2019-02-04T06:57:57.319Z,22.97
2019-02-04T07:00:25.785Z,23.00
2019-02-04T07:02:54.298Z,60.23
2019-02-04T07:05:22.770Z,32.70
2019-02-04T07:07:51.281Z,32.30
2019-02-04T07:10:25.443Z,31.83
2019-02-04T07:12:53.981Z,33.73
2019-02-04T07:15:22.406Z,40.47
2019-02-04T07:17:50.920Z,35.50
2019-02-04T07:20:24.009Z,31.23
2019-02-04T07:22:52.454Z,30.70
2019-02-04T07:25:21.699Z,27.53
2019-02-04T07:27:50.155Z,28.10
2019-02-04T07:30:27.701Z,24.80
2019-02-04T07:32:56.405Z,31.53
2019-02-04T07:35:25.207Z,25.23
2019-02-04T07:37:53.612Z,29.80
2019-02-04T07:40:24.334Z,33.30
2019-02-04T07:42:53.870Z,42.43
2019-02-04T07:45:22.395Z,37.70
2019-02-04T07:47:51.269Z,31.90
2019-02-04T07:50:19.714Z,36.00
2019-02-04T07:52:48.183Z,28.97
2019-02-04T07:55:16.683Z,33.23
2019-02-04T07:57:45.225Z,28.90
2019-02-04T08:02:54.664Z,34.07
2019-02-04T08:05:23.474Z,35.00
2019-02-04T08:07:52.026Z,29.43
2019-02-04T08:10:20.588Z,32.80
2019-02-04T08:13:00.512Z,34.50
2019-02-04T08:15:34.178Z,39.80
2019-02-04T08:18:02.735Z,40.00
2019-02-04T08:20:31.169Z,41.43
2019-02-04T08:22:59.635Z,35.97
2019-02-04T08:25:28.180Z,30.80
2019-02-04T08:27:57.096Z,29.67
2019-02-04T08:30:38.098Z,33.37
2019-02-04T08:33:06.895Z,33.97
2019-02-04T08:35:35.317Z,32.33
2019-02-04T08:38:03.862Z,31.10
2019-02-04T08:40:32.493Z,29.53
2019-02-04T08:43:00.899Z,31.57
2019-02-04T08:45:29.393Z,31.73
2019-02-04T08:47:57.792Z,38.10
2019-02-04T08:50:27.895Z,27.93
2019-02-04T08:52:56.472Z,28.57
2019-02-04T08:55:24.894Z,34.07
2019-02-04T08:57:53.825Z,26.30
2019-02-04T09:00:23.794Z,30.17
2019-02-04T09:02:52.265Z,30.10
2019-02-04T09:05:22.769Z,27.37
2019-02-04T09:07:51.341Z,29.07
2019-02-04T09:10:22.814Z,28.30
2019-02-04T09:12:51.675Z,33.63
2019-02-04T09:15:20.209Z,29.67
2019-02-04T09:17:48.684Z,34.53
2019-02-04T09:20:18.409Z,30.13
2019-02-04T09:22:47.388Z,33.80
2019-02-04T09:25:18.094Z,29.87
2019-02-04T09:27:46.620Z,31.50
2019-02-04T09:30:18.230Z,33.07
2019-02-04T09:32:46.728Z,37.17
2019-02-04T09:35:17.596Z,29.43
2019-02-04T09:37:46.101Z,32.87
2019-02-04T09:40:26.592Z,28.77
2019-02-04T09:42:55.127Z,28.37
2019-02-04T09:45:27.335Z,30.03
2019-02-04T09:47:53.935Z,31.40
2019-02-04T09:50:24.978Z,29.50
2019-02-04T09:52:53.377Z,34.93
2019-02-04T09:55:27.730Z,31.30
2019-02-04T09:57:56.183Z,31.97
2019-02-04T10:00:27.025Z,31.83
2019-02-04T10:02:55.826Z,32.80
2019-02-04T10:05:24.456Z,37.27
2019-02-04T10:07:53.045Z,37.57
2019-02-04T10:10:27.158Z,34.40
2019-02-04T10:12:55.809Z,33.70
2019-02-04T10:15:26.704Z,31.27
2019-02-04T10:17:55.174Z,29.73
2019-02-04T10:20:33.323Z,30.10
2019-02-04T10:22:53.948Z,32.10
2019-02-04T10:25:31.254Z,31.63
2019-02-04T10:27:59.706Z,38.63
2019-02-04T10:30:28.280Z,66.73
2019-02-04T10:32:56.759Z,35.80
2019-02-04T10:35:26.042Z,29.87
2019-02-04T10:37:54.697Z,34.23
2019-02-04T10:40:28.290Z,33.03
2019-02-04T10:42:56.844Z,28.67
2019-02-04T10:45:25.485Z,28.70
2019-02-04T10:47:54.039Z,29.43
2019-02-04T10:50:30.877Z,27.40
2019-02-04T10:52:59.459Z,27.33
2019-02-04T10:55:28.032Z,22.80
2019-02-04T10:57:56.514Z,26.37
2019-02-04T11:00:30.480Z,28.13
2019-02-04T11:02:58.967Z,28.17
2019-02-04T11:05:35.694Z,31.37
2019-02-04T11:08:05.341Z,30.93
2019-02-04T11:10:35.462Z,31.60
2019-02-04T11:13:09.454Z,26.60
2019-02-04T11:15:38.049Z,28.30
2019-02-04T11:18:06.818Z,26.93
2019-02-04T11:20:35.869Z,28.27
2019-02-04T11:23:06.577Z,31.90
2019-02-04T11:25:35.143Z,29.23
2019-02-04T11:28:03.669Z,29.37
2019-02-04T11:30:38.145Z,28.53
2019-02-04T11:33:07.201Z,27.13
2019-02-04T11:35:35.753Z,31.30
2019-02-04T11:38:04.723Z,29.87
2019-02-04T11:40:38.679Z,30.77
2019-02-04T11:43:07.911Z,30.80
2019-02-04T11:45:36.423Z,28.67
2019-02-04T11:48:08.209Z,34.67
2019-02-04T11:50:36.763Z,35.27
2019-02-04T11:53:05.465Z,30.10
2019-02-04T11:55:33.898Z,30.63
2019-02-04T11:58:02.821Z,27.57
2019-02-04T12:00:32.696Z,31.17
2019-02-04T12:03:03.739Z,25.70
2019-02-04T12:05:32.221Z,29.43
2019-02-04T12:08:00.695Z,23.13
2019-02-04T12:10:35.147Z,24.40
2019-02-04T12:13:03.940Z,25.60
2019-02-04T12:15:32.437Z,25.13
2019-02-04T12:18:00.888Z,26.17
2019-02-04T12:20:29.419Z,23.53
2019-02-04T12:22:57.892Z,25.53
2019-02-04T12:25:27.706Z,21.77
2019-02-04T12:27:57.317Z,22.40
2019-02-04T12:30:30.953Z,16.57
2019-02-04T12:32:59.152Z,17.47
2019-02-04T12:35:27.652Z,19.23
2019-02-04T12:37:56.223Z,13.90
2019-02-04T12:40:28.032Z,13.83
2019-02-04T12:42:57.296Z,15.77
2019-02-04T12:45:32.652Z,12.47
2019-02-04T12:48:01.638Z,12.40
2019-02-04T12:50:30.149Z,9.27
2019-02-04T12:53:00.356Z,11.40
2019-02-04T12:55:30.956Z,10.17
2019-02-04T12:58:00.782Z,9.20
2019-02-04T13:00:30.879Z,5.53
2019-02-04T13:02:59.553Z,6.17
2019-02-04T13:05:35.344Z,5.60
2019-02-04T13:08:04.757Z,6.53
2019-02-04T13:10:33.344Z,5.37
2019-02-04T13:13:02.472Z,5.93
2019-02-04T13:15:31.287Z,6.20
2019-02-04T13:18:02.102Z,8.37
2019-02-04T13:20:32.336Z,7.30
2019-02-04T13:23:01.158Z,5.67
2019-02-04T13:25:32.566Z,6.47
2019-02-04T13:28:01.368Z,5.17
2019-02-04T13:30:31.590Z,6.57
2019-02-04T13:33:02.370Z,6.03
2019-02-04T13:35:32.872Z,7.27
2019-02-04T13:38:01.478Z,6.23
2019-02-04T13:40:31.364Z,10.80
2019-02-04T13:43:00.501Z,6.13
2019-02-04T13:45:29.604Z,6.63
2019-02-04T13:50:49.103Z,6.90
2019-02-04T13:53:18.218Z,6.00
2019-02-04T13:55:48.252Z,5.57
2019-02-04T13:58:17.678Z,6.67
2019-02-04T14:00:50.179Z,6.57
2019-02-04T14:03:20.664Z,6.00
2019-02-04T14:05:49.685Z,6.07
2019-02-04T14:08:19.133Z,8.77
2019-02-04T14:10:50.799Z,7.40
2019-02-04T14:13:21.857Z,6.67
2019-02-04T14:15:50.684Z,7.47
2019-02-04T14:18:23.269Z,9.17
2019-02-04T14:20:56.318Z,8.07
2019-02-04T14:23:29.490Z,7.17
2019-02-04T14:25:58.834Z,6.03
2019-02-04T14:28:27.801Z,7.20
2019-02-04T14:31:02.091Z,7.37
2019-02-04T14:33:31.216Z,7.97
2019-02-04T14:36:02.103Z,8.70
2019-02-04T14:38:52.159Z,6.70
2019-02-04T14:41:20.751Z,6.77
2019-02-04T14:43:52.092Z,6.40
2019-02-04T14:46:33.087Z,6.33
2019-02-04T14:49:25.828Z,6.63
2019-02-04T14:52:03.231Z,7.10
2019-02-04T14:54:54.952Z,8.53
2019-02-04T14:57:43.364Z,8.80
2019-02-04T15:00:22.936Z,6.77
2019-02-04T15:03:19.498Z,7.57
2019-02-04T15:05:43.014Z,8.23
2019-02-04T15:08:33.397Z,8.00
2019-02-04T15:11:10.880Z,8.93
2019-02-04T15:14:01.860Z,8.57
2019-02-04T15:16:42.710Z,8.10
2019-02-04T15:19:38.398Z,9.90
2019-02-04T15:22:18.790Z,8.00
2019-02-04T15:24:53.203Z,8.93
2019-02-04T15:27:40.549Z,8.67
2019-02-04T15:30:27.378Z,9.73
2019-02-04T15:33:11.130Z,8.73
2019-02-04T15:35:42.733Z,8.47
2019-02-04T15:38:34.278Z,7.57
2019-02-04T15:41:14.622Z,8.10
2019-02-04T15:43:56.857Z,8.57
2019-02-04T15:46:37.279Z,7.13
2019-02-04T15:49:28.457Z,8.30
2019-02-04T15:51:58.821Z,8.20
2019-02-04T15:54:29.348Z,8.97
2019-02-04T15:56:57.950Z,9.93
2019-02-04T15:59:32.251Z,7.80
2019-02-04T16:02:01.027Z,9.83
2019-02-04T16:04:34.159Z,11.57
2019-02-04T16:07:04.271Z,11.77
2019-02-04T16:09:32.862Z,12.53
2019-02-04T16:12:03.220Z,11.07
2019-02-04T16:14:32.483Z,11.17
2019-02-04T16:17:05.123Z,10.07
2019-02-04T16:19:33.678Z,11.73
2019-02-04T16:22:02.459Z,11.23
2019-02-04T16:24:33.642Z,9.23
2019-02-04T16:27:04.313Z,10.60
2019-02-04T16:29:35.929Z,11.57
2019-02-04T16:32:10.214Z,9.83
2019-02-04T16:34:38.747Z,12.53
2019-02-04T16:37:07.817Z,13.47
2019-02-04T16:39:39.766Z,10.70
2019-02-04T16:42:08.638Z,9.67
2019-02-04T16:44:37.783Z,10.60
2019-02-04T16:47:06.376Z,13.40
2019-02-04T16:49:37.050Z,17.40
2019-02-04T16:52:05.970Z,14.67
2019-02-04T16:54:37.601Z,15.93
2019-02-04T16:57:06.563Z,13.40
2019-02-04T16:59:35.115Z,12.83
2019-02-04T17:02:04.355Z,14.83
2019-02-04T17:04:33.006Z,12.13
2019-02-04T17:07:03.034Z,16.13
2019-02-04T17:09:31.818Z,15.73
2019-02-04T17:12:01.372Z,27.83
2019-02-04T17:14:29.854Z,31.67
2019-02-04T17:16:58.630Z,27.53
2019-02-04T17:19:27.176Z,32.43
2019-02-04T17:21:56.012Z,34.67
2019-02-04T17:24:24.756Z,39.50
2019-02-04T17:27:02.249Z,41.17
2019-02-04T17:29:31.176Z,21.53
2019-02-04T17:32:03.104Z,30.57
2019-02-04T17:34:32.567Z,41.07
2019-02-04T17:37:01.254Z,57.87
2019-02-04T17:39:32.593Z,42.03
2019-02-04T17:42:01.129Z,45.67
2019-02-04T17:44:29.829Z,51.13
2019-02-04T17:46:58.253Z,47.77
2019-02-04T17:49:27.429Z,36.17
2019-02-04T17:51:57.023Z,22.17
2019-02-04T17:54:28.091Z,18.63
2019-02-04T17:56:56.954Z,22.67
2019-02-04T17:59:25.434Z,22.97
2019-02-04T18:01:54.124Z,22.97
2019-02-04T18:04:22.826Z,22.17
2019-02-04T18:06:52.453Z,26.70
2019-02-04T18:09:21.178Z,25.97
2019-02-04T18:11:49.628Z,26.03
2019-02-04T18:14:18.069Z,22.77
2019-02-04T18:16:46.533Z,22.80
2019-02-04T18:19:14.969Z,24.00
2019-02-04T18:21:43.436Z,20.47
2019-02-04T18:24:12.171Z,23.20
2019-02-04T18:26:40.710Z,23.37
2019-02-04T18:29:09.050Z,22.30
2019-02-04T18:31:37.564Z,23.00
2019-02-04T18:34:06.083Z,22.87
2019-02-04T18:36:34.469Z,21.20
2019-02-04T18:39:04.547Z,24.40
2019-02-04T18:41:32.946Z,20.83
2019-02-04T18:44:01.513Z,21.13
2019-02-04T18:46:30.491Z,23.83
2019-02-04T18:48:58.945Z,23.07
2019-02-04T18:51:27.343Z,23.13
2019-02-04T18:53:57.749Z,26.43
2019-02-04T18:56:26.102Z,24.20
2019-02-04T18:58:54.620Z,19.90
2019-02-04T19:01:23.159Z,22.83
2019-02-04T19:03:51.668Z,23.93
2019-02-04T19:06:20.193Z,25.53
2019-02-04T19:08:50.804Z,24.97
2019-02-04T19:11:19.242Z,23.60
2019-02-04T19:13:47.667Z,26.70
2019-02-04T19:16:16.325Z,24.20
2019-02-04T19:18:44.743Z,25.57
2019-02-04T19:21:13.248Z,25.33
2019-02-04T19:23:42.196Z,24.97
2019-02-04T19:26:10.574Z,28.20
2019-02-04T19:28:39.097Z,27.37
2019-02-04T19:31:10.195Z,26.80
2019-02-04T19:33:39.218Z,26.07
2019-02-04T19:36:10.212Z,24.87
2019-02-04T19:38:39.124Z,24.87
2019-02-04T19:41:09.058Z,29.40
2019-02-04T19:43:39.463Z,26.27
2019-02-04T19:46:08.577Z,26.73
2019-02-04T19:48:37.883Z,24.80
2019-02-04T19:51:07.039Z,23.97
2019-02-04T19:53:38.775Z,23.83
2019-02-04T19:56:10.923Z,23.87
2019-02-04T19:58:39.788Z,23.97
2019-02-04T20:01:08.844Z,25.33
2019-02-04T20:03:37.886Z,27.40
2019-02-04T20:06:06.861Z,22.23
2019-02-04T20:08:36.396Z,30.83
2019-02-04T20:11:07.170Z,25.17
2019-02-04T20:13:35.706Z,28.47
2019-02-04T20:16:04.413Z,42.83
2019-02-04T20:18:32.867Z,32.07
2019-02-04T20:21:01.305Z,25.43
2019-02-04T20:23:30.073Z,24.67
2019-02-04T20:25:58.538Z,32.87
2019-02-04T20:28:31.659Z,34.73
2019-02-04T20:31:00.082Z,30.13
2019-02-04T20:33:28.502Z,27.00
2019-02-04T20:35:56.922Z,24.27
2019-02-04T20:38:27.357Z,26.80
2019-02-04T20:40:55.983Z,26.77
2019-02-04T20:43:24.440Z,31.17
2019-02-04T20:45:52.831Z,35.63
2019-02-04T20:48:21.390Z,31.77
2019-02-04T20:50:50.781Z,28.97
2019-02-04T20:53:19.227Z,28.07
2019-02-04T20:55:47.689Z,32.40
2019-02-04T20:58:16.123Z,27.60
2019-02-04T21:00:44.601Z,36.47
2019-02-04T21:03:13.035Z,34.80
2019-02-04T21:05:41.427Z,33.50
2019-02-04T21:08:10.429Z,28.77
2019-02-04T21:10:42.306Z,32.77
2019-02-04T21:13:13.732Z,29.50
2019-02-04T21:15:44.158Z,32.43
2019-02-04T21:18:13.412Z,30.07
2019-02-04T21:20:42.524Z,30.47
2019-02-04T21:23:12.328Z,28.63
2019-02-04T21:25:40.876Z,29.40
2019-02-04T21:28:10.689Z,30.90
2019-02-04T21:30:41.004Z,32.30
2019-02-04T21:33:10.794Z,31.43
2019-02-04T21:35:39.291Z,33.23
2019-02-04T21:38:08.548Z,31.90
2019-02-04T21:40:38.895Z,32.83
2019-02-04T21:43:07.996Z,30.77
2019-02-04T21:45:38.956Z,33.50
2019-02-04T21:48:08.410Z,27.93
2019-02-04T21:50:36.913Z,29.67
2019-02-04T21:53:05.968Z,30.70
2019-02-04T21:55:34.424Z,33.53
2019-02-04T21:58:03.177Z,35.03
2019-02-04T22:00:35.496Z,28.87
2019-02-04T22:03:04.510Z,27.23
2019-02-04T22:05:34.680Z,27.77
2019-02-04T22:08:03.533Z,28.97
2019-02-04T22:10:32.331Z,31.13
2019-02-04T22:13:02.579Z,26.20
2019-02-04T22:15:31.416Z,30.93
2019-02-04T22:17:59.928Z,30.43
2019-02-04T22:20:28.534Z,31.70
2019-02-04T22:22:57.106Z,29.20
2019-02-04T22:25:26.038Z,80.60
2019-02-04T22:27:57.520Z,29.27
2019-02-04T22:30:34.198Z,33.10
2019-02-04T22:33:04.054Z,29.40
2019-02-04T22:35:37.441Z,28.63
2019-02-04T22:38:06.233Z,29.73
2019-02-04T22:40:35.037Z,30.17
2019-02-04T22:43:03.924Z,27.77
2019-02-04T22:45:32.510Z,29.23
2019-02-04T22:48:01.297Z,30.73
2019-02-04T22:50:30.808Z,31.70
2019-02-04T22:53:02.366Z,26.67
2019-02-04T22:55:32.378Z,28.97
2019-02-04T22:58:01.198Z,28.67
2019-02-04T23:00:49.377Z,30.50
2019-02-04T23:03:23.773Z,29.00
2019-02-04T23:05:52.354Z,30.33
2019-02-04T23:08:20.895Z,30.47
2019-02-04T23:10:49.464Z,30.80
2019-02-04T23:13:17.932Z,32.33
2019-02-04T23:15:46.723Z,35.97
2019-02-04T23:18:15.277Z,32.23
2019-02-04T23:20:43.730Z,32.60
2019-02-04T23:23:12.274Z,31.77
2019-02-04T23:25:43.384Z,30.27
2019-02-04T23:28:11.008Z,30.80
2019-02-04T23:30:39.435Z,34.17
2019-02-04T23:33:07.984Z,33.73
2019-02-04T23:35:36.417Z,34.17
2019-02-04T23:38:06.599Z,31.67
2019-02-04T23:40:35.191Z,28.07
2019-02-04T23:43:03.628Z,30.30
2019-02-04T23:45:32.092Z,29.97
2019-02-04T23:48:00.826Z,29.47
2019-02-04T23:50:29.268Z,30.17
2019-02-04T23:52:57.837Z,29.87
2019-02-04T23:55:26.276Z,33.83
2019-02-04T23:57:54.785Z,31.73
